sensor_id;sensor_type;location;lat;lon;timestamp;temperature;humidity
25937;DHT22;13733;51.178;4.450;2024-01-15T00:02:10;3.60;69.60
25937;DHT22;13733;51.178;4.450;2024-01-15T00:04:40;3.60;77.20
25937;DHT22;13733;51.178;4.450;2024-01-15T00:07:06;3.70;80.10
25937;DHT22;13733;51.178;4.450;2024-01-15T00:09:32;3.90;78.40
25937;DHT22;13733;51.178;4.450;2024-01-15T00:11:59;4.00;70.50
25937;DHT22;13733;51.178;4.450;2024-01-15T00:14:25;3.70;77.90
25937;DHT22;13733;51.178;4.450;2024-01-15T00:16:51;3.80;82.30
25937;DHT22;13733;51.178;4.450;2024-01-15T00:19:22;3.90;86.20
25937;DHT22;13733;51.178;4.450;2024-01-15T00:21:49;4.00;83.00
25937;DHT22;13733;51.178;4.450;2024-01-15T00:24:15;4.20;79.80
25937;DHT22;13733;51.178;4.450;2024-01-15T00:26:41;4.20;77.90
25937;DHT22;13733;51.178;4.450;2024-01-15T00:29:07;4.10;82.60
25937;DHT22;13733;51.178;4.450;2024-01-15T00:31:34;4.30;77.70
25937;DHT22;13733;51.178;4.450;2024-01-15T00:33:59;4.30;71.60
25937;DHT22;13733;51.178;4.450;2024-01-15T00:36:25;4.20;67.70
25937;DHT22;13733;51.178;4.450;2024-01-15T00:38:51;4.10;78.40
25937;DHT22;13733;51.178;4.450;2024-01-15T00:41:17;4.00;80.00
25937;DHT22;13733;51.178;4.450;2024-01-15T00:43:44;3.90;82.80
25937;DHT22;13733;51.178;4.450;2024-01-15T00:46:10;4.00;83.10
25937;DHT22;13733;51.178;4.450;2024-01-15T00:48:37;4.00;77.80
25937;DHT22;13733;51.178;4.450;2024-01-15T00:51:06;3.90;81.40
25937;DHT22;13733;51.178;4.450;2024-01-15T00:53:32;3.80;85.60
25937;DHT22;13733;51.178;4.450;2024-01-15T00:55:58;3.70;87.40
25937;DHT22;13733;51.178;4.450;2024-01-15T00:58:25;4.00;84.60
25937;DHT22;13733;51.178;4.450;2024-01-15T01:00:51;4.00;80.80
25937;DHT22;13733;51.178;4.450;2024-01-15T01:03:16;4.00;80.90
25937;DHT22;13733;51.178;4.450;2024-01-15T01:05:42;4.00;80.40
25937;DHT22;13733;51.178;4.450;2024-01-15T01:08:09;4.00;81.80
25937;DHT22;13733;51.178;4.450;2024-01-15T01:10:35;4.00;80.10
25937;DHT22;13733;51.178;4.450;2024-01-15T01:13:01;4.00;82.90
25937;DHT22;13733;51.178;4.450;2024-01-15T01:15:27;4.10;81.40
25937;DHT22;13733;51.178;4.450;2024-01-15T01:17:54;4.10;79.30
25937;DHT22;13733;51.178;4.450;2024-01-15T01:20:20;4.00;77.10
25937;DHT22;13733;51.178;4.450;2024-01-15T01:22:45;4.00;79.20
25937;DHT22;13733;51.178;4.450;2024-01-15T01:25:12;4.00;79.00
25937;DHT22;13733;51.178;4.450;2024-01-15T01:27:38;4.00;75.10
25937;DHT22;13733;51.178;4.450;2024-01-15T01:30:05;4.00;79.10
25937;DHT22;13733;51.178;4.450;2024-01-15T01:32:31;3.90;84.70
25937;DHT22;13733;51.178;4.450;2024-01-15T01:34:58;3.80;89.20
25937;DHT22;13733;51.178;4.450;2024-01-15T01:37:24;3.90;90.10
25937;DHT22;13733;51.178;4.450;2024-01-15T01:39:49;3.90;90.10
25937;DHT22;13733;51.178;4.450;2024-01-15T01:42:15;3.80;91.30
25937;DHT22;13733;51.178;4.450;2024-01-15T01:44:41;3.80;91.70
25937;DHT22;13733;51.178;4.450;2024-01-15T01:47:07;3.70;92.10
25937;DHT22;13733;51.178;4.450;2024-01-15T01:49:33;3.80;91.50
25937;DHT22;13733;51.178;4.450;2024-01-15T01:52:03;3.80;90.80
25937;DHT22;13733;51.178;4.450;2024-01-15T01:54:32;3.70;90.60
25937;DHT22;13733;51.178;4.450;2024-01-15T01:56:58;3.70;91.20
25937;DHT22;13733;51.178;4.450;2024-01-15T01:59:27;3.70;91.50
25937;DHT22;13733;51.178;4.450;2024-01-15T02:01:54;3.80;91.50
25937;DHT22;13733;51.178;4.450;2024-01-15T02:04:21;3.70;90.90
25937;DHT22;13733;51.178;4.450;2024-01-15T02:06:50;3.60;90.70
25937;DHT22;13733;51.178;4.450;2024-01-15T02:09:16;3.70;91.70
25937;DHT22;13733;51.178;4.450;2024-01-15T02:11:43;3.80;90.70
25937;DHT22;13733;51.178;4.450;2024-01-15T02:14:11;3.80;88.30
25937;DHT22;13733;51.178;4.450;2024-01-15T02:16:37;3.80;88.30
25937;DHT22;13733;51.178;4.450;2024-01-15T02:19:06;3.80;89.60
25937;DHT22;13733;51.178;4.450;2024-01-15T02:21:32;3.80;90.60
25937;DHT22;13733;51.178;4.450;2024-01-15T02:23:58;3.80;90.40
25937;DHT22;13733;51.178;4.450;2024-01-15T02:26:24;3.90;88.90
25937;DHT22;13733;51.178;4.450;2024-01-15T02:28:51;4.00;84.40
25937;DHT22;13733;51.178;4.450;2024-01-15T02:31:17;4.00;83.70
25937;DHT22;13733;51.178;4.450;2024-01-15T02:33:43;4.00;83.30
25937;DHT22;13733;51.178;4.450;2024-01-15T02:36:10;3.90;81.20
25937;DHT22;13733;51.178;4.450;2024-01-15T02:38:35;4.00;79.70
25937;DHT22;13733;51.178;4.450;2024-01-15T02:41:01;3.90;78.10
25937;DHT22;13733;51.178;4.450;2024-01-15T02:43:27;3.90;77.80
25937;DHT22;13733;51.178;4.450;2024-01-15T02:45:53;3.80;80.70
25937;DHT22;13733;51.178;4.450;2024-01-15T02:48:18;4.00;79.90
25937;DHT22;13733;51.178;4.450;2024-01-15T02:50:45;3.90;77.70
25937;DHT22;13733;51.178;4.450;2024-01-15T02:53:11;4.00;75.40
25937;DHT22;13733;51.178;4.450;2024-01-15T02:55:37;4.10;74.10
25937;DHT22;13733;51.178;4.450;2024-01-15T02:58:03;4.10;70.40
25937;DHT22;13733;51.178;4.450;2024-01-15T03:00:29;4.10;66.10
25937;DHT22;13733;51.178;4.450;2024-01-15T03:02:55;4.10;61.70
25937;DHT22;13733;51.178;4.450;2024-01-15T03:05:21;4.10;64.70
25937;DHT22;13733;51.178;4.450;2024-01-15T03:07:47;3.90;65.90
25937;DHT22;13733;51.178;4.450;2024-01-15T03:10:13;3.80;70.30
25937;DHT22;13733;51.178;4.450;2024-01-15T03:12:39;3.80;73.60
25937;DHT22;13733;51.178;4.450;2024-01-15T03:15:05;3.90;75.00
25937;DHT22;13733;51.178;4.450;2024-01-15T03:17:31;3.90;69.80
25937;DHT22;13733;51.178;4.450;2024-01-15T03:19:57;3.90;70.00
25937;DHT22;13733;51.178;4.450;2024-01-15T03:22:23;4.00;69.80
25937;DHT22;13733;51.178;4.450;2024-01-15T03:24:48;4.10;65.50
25937;DHT22;13733;51.178;4.450;2024-01-15T03:27:14;4.10;62.70
25937;DHT22;13733;51.178;4.450;2024-01-15T03:29:41;4.20;59.70
25937;DHT22;13733;51.178;4.450;2024-01-15T03:32:07;4.20;56.70
25937;DHT22;13733;51.178;4.450;2024-01-15T03:34:33;4.10;59.00
25937;DHT22;13733;51.178;4.450;2024-01-15T03:36:59;3.90;64.30
25937;DHT22;13733;51.178;4.450;2024-01-15T03:39:25;3.90;70.00
25937;DHT22;13733;51.178;4.450;2024-01-15T03:41:52;3.90;70.50
25937;DHT22;13733;51.178;4.450;2024-01-15T03:44:17;4.00;65.20
25937;DHT22;13733;51.178;4.450;2024-01-15T03:46:43;3.80;69.30
25937;DHT22;13733;51.178;4.450;2024-01-15T03:49:09;3.80;75.90
25937;DHT22;13733;51.178;4.450;2024-01-15T03:51:35;4.00;75.00
25937;DHT22;13733;51.178;4.450;2024-01-15T03:54:01;4.10;70.10
25937;DHT22;13733;51.178;4.450;2024-01-15T03:56:27;4.00;67.80
25937;DHT22;13733;51.178;4.450;2024-01-15T03:58:53;4.00;66.70
25937;DHT22;13733;51.178;4.450;2024-01-15T04:01:19;3.90;70.00
25937;DHT22;13733;51.178;4.450;2024-01-15T04:03:45;3.90;74.20
25937;DHT22;13733;51.178;4.450;2024-01-15T04:06:10;3.80;72.20
25937;DHT22;13733;51.178;4.450;2024-01-15T04:08:36;3.70;78.40
25937;DHT22;13733;51.178;4.450;2024-01-15T04:11:02;3.70;79.70
25937;DHT22;13733;51.178;4.450;2024-01-15T04:13:31;3.90;77.50
25937;DHT22;13733;51.178;4.450;2024-01-15T04:16:00;3.90;74.60
25937;DHT22;13733;51.178;4.450;2024-01-15T04:18:26;3.80;74.30
25937;DHT22;13733;51.178;4.450;2024-01-15T04:20:52;3.60;81.10
25937;DHT22;13733;51.178;4.450;2024-01-15T04:23:17;3.50;87.00
25937;DHT22;13733;51.178;4.450;2024-01-15T04:25:43;3.50;89.40
25937;DHT22;13733;51.178;4.450;2024-01-15T04:28:09;3.50;90.70
25937;DHT22;13733;51.178;4.450;2024-01-15T04:30:35;3.50;89.20
25937;DHT22;13733;51.178;4.450;2024-01-15T04:33:01;3.50;88.50
25937;DHT22;13733;51.178;4.450;2024-01-15T04:35:27;3.50;86.90
25937;DHT22;13733;51.178;4.450;2024-01-15T04:37:52;3.50;86.70
25937;DHT22;13733;51.178;4.450;2024-01-15T04:40:18;3.60;84.40
25937;DHT22;13733;51.178;4.450;2024-01-15T04:42:44;3.60;83.10
25937;DHT22;13733;51.178;4.450;2024-01-15T04:45:11;3.50;83.50
25937;DHT22;13733;51.178;4.450;2024-01-15T04:47:37;3.40;85.70
25937;DHT22;13733;51.178;4.450;2024-01-15T04:50:04;3.50;84.60
25937;DHT22;13733;51.178;4.450;2024-01-15T04:52:30;3.60;81.00
25937;DHT22;13733;51.178;4.450;2024-01-15T04:54:55;3.40;79.10
25937;DHT22;13733;51.178;4.450;2024-01-15T04:57:22;3.40;84.30
25937;DHT22;13733;51.178;4.450;2024-01-15T04:59:48;3.40;82.20
25937;DHT22;13733;51.178;4.450;2024-01-15T05:02:14;3.40;82.60
25937;DHT22;13733;51.178;4.450;2024-01-15T05:04:40;3.40;81.60
25937;DHT22;13733;51.178;4.450;2024-01-15T05:07:05;3.40;81.50
25937;DHT22;13733;51.178;4.450;2024-01-15T05:09:31;3.50;78.60
25937;DHT22;13733;51.178;4.450;2024-01-15T05:11:57;3.60;75.50
25937;DHT22;13733;51.178;4.450;2024-01-15T05:14:23;3.70;72.00
25937;DHT22;13733;51.178;4.450;2024-01-15T05:16:49;3.50;69.90
25937;DHT22;13733;51.178;4.450;2024-01-15T05:19:18;3.70;65.50
25937;DHT22;13733;51.178;4.450;2024-01-15T05:21:43;3.60;66.90
25937;DHT22;13733;51.178;4.450;2024-01-15T05:24:09;3.60;67.80
25937;DHT22;13733;51.178;4.450;2024-01-15T05:26:35;3.60;68.00
25937;DHT22;13733;51.178;4.450;2024-01-15T05:29:01;3.40;71.00
25937;DHT22;13733;51.178;4.450;2024-01-15T05:31:26;3.40;71.20
25937;DHT22;13733;51.178;4.450;2024-01-15T05:33:52;3.50;70.70
25937;DHT22;13733;51.178;4.450;2024-01-15T05:36:21;3.50;68.10
25937;DHT22;13733;51.178;4.450;2024-01-15T05:38:47;3.40;70.00
25937;DHT22;13733;51.178;4.450;2024-01-15T05:41:14;3.30;71.80
25937;DHT22;13733;51.178;4.450;2024-01-15T05:43:40;3.30;75.00
25937;DHT22;13733;51.178;4.450;2024-01-15T05:46:06;3.30;73.10
25937;DHT22;13733;51.178;4.450;2024-01-15T05:48:32;3.40;70.30
25937;DHT22;13733;51.178;4.450;2024-01-15T05:50:58;3.50;65.90
25937;DHT22;13733;51.178;4.450;2024-01-15T05:53:24;3.40;67.90
25937;DHT22;13733;51.178;4.450;2024-01-15T05:55:51;3.40;65.20
25937;DHT22;13733;51.178;4.450;2024-01-15T05:58:17;3.40;67.00
25937;DHT22;13733;51.178;4.450;2024-01-15T06:00:43;3.40;64.20
25937;DHT22;13733;51.178;4.450;2024-01-15T06:03:08;3.40;59.30
25937;DHT22;13733;51.178;4.450;2024-01-15T06:05:34;3.40;59.40
25937;DHT22;13733;51.178;4.450;2024-01-15T06:08:01;3.40;57.80
25937;DHT22;13733;51.178;4.450;2024-01-15T06:10:27;3.30;58.70
25937;DHT22;13733;51.178;4.450;2024-01-15T06:12:53;3.40;53.20
25937;DHT22;13733;51.178;4.450;2024-01-15T06:15:18;3.40;58.30
25937;DHT22;13733;51.178;4.450;2024-01-15T06:17:44;3.40;55.80
25937;DHT22;13733;51.178;4.450;2024-01-15T06:20:10;3.30;54.90
25937;DHT22;13733;51.178;4.450;2024-01-15T06:22:37;3.40;55.90
25937;DHT22;13733;51.178;4.450;2024-01-15T06:25:08;3.50;49.80
25937;DHT22;13733;51.178;4.450;2024-01-15T06:27:34;3.60;41.30
25937;DHT22;13733;51.178;4.450;2024-01-15T06:29:59;3.60;40.10
25937;DHT22;13733;51.178;4.450;2024-01-15T06:32:25;3.50;42.30
25937;DHT22;13733;51.178;4.450;2024-01-15T06:34:51;3.50;42.80
25937;DHT22;13733;51.178;4.450;2024-01-15T06:37:17;3.50;39.30
25937;DHT22;13733;51.178;4.450;2024-01-15T06:39:44;3.50;43.90
25937;DHT22;13733;51.178;4.450;2024-01-15T06:42:10;3.60;37.50
25937;DHT22;13733;51.178;4.450;2024-01-15T06:44:36;3.60;33.30
25937;DHT22;13733;51.178;4.450;2024-01-15T06:47:01;3.70;26.30
25937;DHT22;13733;51.178;4.450;2024-01-15T06:49:31;3.60;25.80
25937;DHT22;13733;51.178;4.450;2024-01-15T06:51:57;3.40;30.50
25937;DHT22;13733;51.178;4.450;2024-01-15T06:54:22;3.30;37.00
25937;DHT22;13733;51.178;4.450;2024-01-15T06:56:49;3.40;32.80
25937;DHT22;13733;51.178;4.450;2024-01-15T06:59:15;3.60;25.40
25937;DHT22;13733;51.178;4.450;2024-01-15T07:01:41;3.80;11.10
25937;DHT22;13733;51.178;4.450;2024-01-15T07:04:08;3.80;7.80
25937;DHT22;13733;51.178;4.450;2024-01-15T07:06:34;3.70;10.80
25937;DHT22;13733;51.178;4.450;2024-01-15T07:09:00;3.60;13.30
25937;DHT22;13733;51.178;4.450;2024-01-15T07:11:25;3.50;20.10
25937;DHT22;13733;51.178;4.450;2024-01-15T07:13:52;3.60;20.90
25937;DHT22;13733;51.178;4.450;2024-01-15T07:16:19;3.50;20.40
25937;DHT22;13733;51.178;4.450;2024-01-15T07:18:44;3.60;13.80
25937;DHT22;13733;51.178;4.450;2024-01-15T07:21:10;3.60;13.90
25937;DHT22;13733;51.178;4.450;2024-01-15T07:23:37;3.50;19.00
25937;DHT22;13733;51.178;4.450;2024-01-15T07:26:03;3.60;18.50
25937;DHT22;13733;51.178;4.450;2024-01-15T07:28:30;3.70;14.80
25937;DHT22;13733;51.178;4.450;2024-01-15T07:30:57;3.80;12.60
25937;DHT22;13733;51.178;4.450;2024-01-15T07:33:22;3.90;8.00
25937;DHT22;13733;51.178;4.450;2024-01-15T07:35:48;4.00;4.80
25937;DHT22;13733;51.178;4.450;2024-01-15T07:38:15;4.10;1.00
25937;DHT22;13733;51.178;4.450;2024-01-15T07:40:41;4.20;1.00
25937;DHT22;13733;51.178;4.450;2024-01-15T07:43:07;4.00;1.30
25937;DHT22;13733;51.178;4.450;2024-01-15T07:45:33;3.80;13.40
25937;DHT22;13733;51.178;4.450;2024-01-15T07:47:59;3.60;23.70
25937;DHT22;13733;51.178;4.450;2024-01-15T07:50:25;3.70;21.80
25937;DHT22;13733;51.178;4.450;2024-01-15T07:52:50;3.80;18.10
25937;DHT22;13733;51.178;4.450;2024-01-15T07:55:16;3.70;19.60
25937;DHT22;13733;51.178;4.450;2024-01-15T07:57:42;3.80;18.30
25937;DHT22;13733;51.178;4.450;2024-01-15T08:00:08;3.80;18.90
25937;DHT22;13733;51.178;4.450;2024-01-15T08:02:34;3.70;19.20
25937;DHT22;13733;51.178;4.450;2024-01-15T08:05:01;3.80;15.70
25937;DHT22;13733;51.178;4.450;2024-01-15T08:07:29;3.80;12.80
25937;DHT22;13733;51.178;4.450;2024-01-15T08:09:55;3.80;1.00
25937;DHT22;13733;51.178;4.450;2024-01-15T08:12:21;3.90;1.00
25937;DHT22;13733;51.178;4.450;2024-01-15T08:14:48;3.80;1.00
25937;DHT22;13733;51.178;4.450;2024-01-15T08:17:13;3.80;1.00
25937;DHT22;13733;51.178;4.450;2024-01-15T08:19:40;3.70;1.00
25937;DHT22;13733;51.178;4.450;2024-01-15T08:22:06;3.70;1.00
25937;DHT22;13733;51.178;4.450;2024-01-15T08:24:32;3.70;1.00
25937;DHT22;13733;51.178;4.450;2024-01-15T08:26:58;3.70;1.00
25937;DHT22;13733;51.178;4.450;2024-01-15T08:29:23;3.70;1.00
25937;DHT22;13733;51.178;4.450;2024-01-15T08:31:50;3.70;1.00
25937;DHT22;13733;51.178;4.450;2024-01-15T08:34:16;3.60;1.00
25937;DHT22;13733;51.178;4.450;2024-01-15T08:36:41;3.60;1.00
25937;DHT22;13733;51.178;4.450;2024-01-15T08:39:07;3.60;1.00
25937;DHT22;13733;51.178;4.450;2024-01-15T08:41:34;3.70;1.00
25937;DHT22;13733;51.178;4.450;2024-01-15T08:44:01;3.60;1.00
25937;DHT22;13733;51.178;4.450;2024-01-15T08:46:28;3.60;1.00
25937;DHT22;13733;51.178;4.450;2024-01-15T08:48:55;3.80;1.00
25937;DHT22;13733;51.178;4.450;2024-01-15T08:51:20;3.70;1.00
25937;DHT22;13733;51.178;4.450;2024-01-15T08:53:47;3.70;1.00
25937;DHT22;13733;51.178;4.450;2024-01-15T08:56:13;3.80;1.00
25937;DHT22;13733;51.178;4.450;2024-01-15T08:58:39;3.80;1.00
25937;DHT22;13733;51.178;4.450;2024-01-15T09:01:05;3.80;1.00
25937;DHT22;13733;51.178;4.450;2024-01-15T09:03:31;3.80;1.00
25937;DHT22;13733;51.178;4.450;2024-01-15T09:05:56;3.80;1.00
25937;DHT22;13733;51.178;4.450;2024-01-15T09:08:22;3.90;1.00
25937;DHT22;13733;51.178;4.450;2024-01-15T09:10:48;3.70;1.00
25937;DHT22;13733;51.178;4.450;2024-01-15T09:13:13;3.80;1.00
25937;DHT22;13733;51.178;4.450;2024-01-15T09:15:39;3.70;1.00
25937;DHT22;13733;51.178;4.450;2024-01-15T09:18:05;3.50;1.00
25937;DHT22;13733;51.178;4.450;2024-01-15T09:20:31;3.50;1.00
25937;DHT22;13733;51.178;4.450;2024-01-15T09:22:57;3.40;1.00
25937;DHT22;13733;51.178;4.450;2024-01-15T09:25:22;3.40;1.00
25937;DHT22;13733;51.178;4.450;2024-01-15T09:27:48;3.50;1.00
25937;DHT22;13733;51.178;4.450;2024-01-15T09:30:14;3.50;1.00
25937;DHT22;13733;51.178;4.450;2024-01-15T09:32:40;3.60;1.00
25937;DHT22;13733;51.178;4.450;2024-01-15T09:35:06;3.60;1.00
25937;DHT22;13733;51.178;4.450;2024-01-15T09:37:32;3.60;1.00
25937;DHT22;13733;51.178;4.450;2024-01-15T09:39:57;3.60;1.00
25937;DHT22;13733;51.178;4.450;2024-01-15T09:42:27;3.60;1.00
25937;DHT22;13733;51.178;4.450;2024-01-15T09:44:53;3.70;1.00
25937;DHT22;13733;51.178;4.450;2024-01-15T09:47:21;3.80;1.00
25937;DHT22;13733;51.178;4.450;2024-01-15T09:49:48;3.80;1.00
25937;DHT22;13733;51.178;4.450;2024-01-15T09:52:15;4.00;1.00
25937;DHT22;13733;51.178;4.450;2024-01-15T09:54:43;4.10;1.00
25937;DHT22;13733;51.178;4.450;2024-01-15T09:57:09;4.20;1.00
25937;DHT22;13733;51.178;4.450;2024-01-15T09:59:37;4.20;1.00
25937;DHT22;13733;51.178;4.450;2024-01-15T10:02:05;4.20;1.00
25937;DHT22;13733;51.178;4.450;2024-01-15T10:04:32;4.20;1.00
25937;DHT22;13733;51.178;4.450;2024-01-15T10:06:58;4.20;1.00
25937;DHT22;13733;51.178;4.450;2024-01-15T10:09:26;4.20;1.00
25937;DHT22;13733;51.178;4.450;2024-01-15T10:11:53;4.30;1.00
25937;DHT22;13733;51.178;4.450;2024-01-15T10:14:20;4.40;1.00
25937;DHT22;13733;51.178;4.450;2024-01-15T10:16:47;4.50;1.00
25937;DHT22;13733;51.178;4.450;2024-01-15T10:19:13;4.80;1.00
25937;DHT22;13733;51.178;4.450;2024-01-15T10:21:38;4.80;1.00
25937;DHT22;13733;51.178;4.450;2024-01-15T10:24:04;5.00;1.00
25937;DHT22;13733;51.178;4.450;2024-01-15T10:26:32;5.10;1.00
25937;DHT22;13733;51.178;4.450;2024-01-15T10:29:01;5.20;1.00
25937;DHT22;13733;51.178;4.450;2024-01-15T10:31:27;5.50;1.00
25937;DHT22;13733;51.178;4.450;2024-01-15T10:33:53;5.60;99.90
25937;DHT22;13733;51.178;4.450;2024-01-15T10:36:20;5.70;99.90
25937;DHT22;13733;51.178;4.450;2024-01-15T10:38:46;5.80;99.90
25937;DHT22;13733;51.178;4.450;2024-01-15T10:41:12;6.10;99.90
25937;DHT22;13733;51.178;4.450;2024-01-15T10:43:38;6.00;99.90
25937;DHT22;13733;51.178;4.450;2024-01-15T10:46:07;5.90;99.90
25937;DHT22;13733;51.178;4.450;2024-01-15T10:48:33;5.70;99.90
25937;DHT22;13733;51.178;4.450;2024-01-15T10:51:01;5.50;99.90
25937;DHT22;13733;51.178;4.450;2024-01-15T10:53:39;5.40;99.90
25937;DHT22;13733;51.178;4.450;2024-01-15T10:56:06;5.20;99.90
25937;DHT22;13733;51.178;4.450;2024-01-15T10:58:34;5.10;99.90
25937;DHT22;13733;51.178;4.450;2024-01-15T11:01:01;5.10;99.90
25937;DHT22;13733;51.178;4.450;2024-01-15T11:03:27;5.00;1.00
25937;DHT22;13733;51.178;4.450;2024-01-15T11:05:53;5.20;1.00
25937;DHT22;13733;51.178;4.450;2024-01-15T11:08:19;5.20;99.90
25937;DHT22;13733;51.178;4.450;2024-01-15T11:10:52;5.20;99.90
25937;DHT22;13733;51.178;4.450;2024-01-15T11:16:10;5.10;99.90
25937;DHT22;13733;51.178;4.450;2024-01-15T11:18:39;5.30;99.90
25937;DHT22;13733;51.178;4.450;2024-01-15T11:23:42;5.50;99.90
25937;DHT22;13733;51.178;4.450;2024-01-15T11:28:57;6.20;99.90
25937;DHT22;13733;51.178;4.450;2024-01-15T11:31:56;6.70;42.50
25937;DHT22;13733;51.178;4.450;2024-01-15T11:34:15;6.50;99.40
25937;DHT22;13733;51.178;4.450;2024-01-15T11:42:00;5.60;1.00
25937;DHT22;13733;51.178;4.450;2024-01-15T11:44:26;5.20;1.00
25937;DHT22;13733;51.178;4.450;2024-01-15T11:47:12;4.80;1.00
25937;DHT22;13733;51.178;4.450;2024-01-15T11:52:22;4.00;34.40
25937;DHT22;13733;51.178;4.450;2024-01-15T11:55:14;3.70;46.70
25937;DHT22;13733;51.178;4.450;2024-01-15T11:57:45;3.60;65.70
25937;DHT22;13733;51.178;4.450;2024-01-15T12:00:13;3.70;58.40
25937;DHT22;13733;51.178;4.450;2024-01-15T12:02:42;3.80;56.60
25937;DHT22;13733;51.178;4.450;2024-01-15T12:05:12;4.10;58.50
25937;DHT22;13733;51.178;4.450;2024-01-15T12:07:42;4.30;54.70
25937;DHT22;13733;51.178;4.450;2024-01-15T12:10:13;4.20;52.20
25937;DHT22;13733;51.178;4.450;2024-01-15T12:15:21;4.20;57.50
25937;DHT22;13733;51.178;4.450;2024-01-15T12:17:46;4.60;46.90
25937;DHT22;13733;51.178;4.450;2024-01-15T12:20:13;4.60;41.40
25937;DHT22;13733;51.178;4.450;2024-01-15T12:22:40;4.60;34.40
25937;DHT22;13733;51.178;4.450;2024-01-15T12:25:05;4.50;32.90
25937;DHT22;13733;51.178;4.450;2024-01-15T12:27:32;4.30;37.70
25937;DHT22;13733;51.178;4.450;2024-01-15T12:29:58;4.10;45.80
25937;DHT22;13733;51.178;4.450;2024-01-15T12:32:25;3.90;53.30
25937;DHT22;13733;51.178;4.450;2024-01-15T12:34:52;3.70;59.80
25937;DHT22;13733;51.178;4.450;2024-01-15T12:37:21;3.50;67.50
25937;DHT22;13733;51.178;4.450;2024-01-15T12:39:48;3.30;73.80
25937;DHT22;13733;51.178;4.450;2024-01-15T12:42:18;3.10;82.60
25937;DHT22;13733;51.178;4.450;2024-01-15T12:44:46;3.10;88.20
25937;DHT22;13733;51.178;4.450;2024-01-15T12:47:12;3.20;90.30
25937;DHT22;13733;51.178;4.450;2024-01-15T12:49:39;3.30;91.40
25937;DHT22;13733;51.178;4.450;2024-01-15T12:52:08;3.40;89.90
25937;DHT22;13733;51.178;4.450;2024-01-15T12:54:35;3.50;86.80
25937;DHT22;13733;51.178;4.450;2024-01-15T12:57:00;3.40;86.90
25937;DHT22;13733;51.178;4.450;2024-01-15T12:59:26;3.30;86.70
25937;DHT22;13733;51.178;4.450;2024-01-15T13:01:52;3.30;89.40
25937;DHT22;13733;51.178;4.450;2024-01-15T13:04:25;3.30;91.00
25937;DHT22;13733;51.178;4.450;2024-01-15T13:06:51;3.30;92.60
25937;DHT22;13733;51.178;4.450;2024-01-15T13:09:17;3.30;92.10
25937;DHT22;13733;51.178;4.450;2024-01-15T13:11:46;3.30;91.40
25937;DHT22;13733;51.178;4.450;2024-01-15T13:14:12;3.30;92.20
25937;DHT22;13733;51.178;4.450;2024-01-15T13:16:41;3.50;91.00
25937;DHT22;13733;51.178;4.450;2024-01-15T13:19:11;3.30;88.20
25937;DHT22;13733;51.178;4.450;2024-01-15T13:21:42;3.30;90.80
25937;DHT22;13733;51.178;4.450;2024-01-15T13:24:08;3.20;91.80
25937;DHT22;13733;51.178;4.450;2024-01-15T13:26:34;3.20;94.40
25937;DHT22;13733;51.178;4.450;2024-01-15T13:29:02;3.30;95.30
25937;DHT22;13733;51.178;4.450;2024-01-15T13:31:32;3.30;95.50
25937;DHT22;13733;51.178;4.450;2024-01-15T13:33:59;3.10;93.40
25937;DHT22;13733;51.178;4.450;2024-01-15T13:36:26;3.10;95.50
25937;DHT22;13733;51.178;4.450;2024-01-15T13:38:53;3.20;96.20
25937;DHT22;13733;51.178;4.450;2024-01-15T13:41:22;3.30;95.00
25937;DHT22;13733;51.178;4.450;2024-01-15T13:43:51;3.50;94.10
25937;DHT22;13733;51.178;4.450;2024-01-15T13:46:23;3.70;90.60
25937;DHT22;13733;51.178;4.450;2024-01-15T13:48:48;3.80;84.40
25937;DHT22;13733;51.178;4.450;2024-01-15T13:51:15;3.90;71.40
25937;DHT22;13733;51.178;4.450;2024-01-15T13:53:42;3.80;72.30
25937;DHT22;13733;51.178;4.450;2024-01-15T13:56:09;3.60;74.30
25937;DHT22;13733;51.178;4.450;2024-01-15T13:58:36;3.70;70.80
25937;DHT22;13733;51.178;4.450;2024-01-15T14:01:03;3.70;73.40
25937;DHT22;13733;51.178;4.450;2024-01-15T14:03:32;3.70;70.20
25937;DHT22;13733;51.178;4.450;2024-01-15T14:05:58;3.70;72.00
25937;DHT22;13733;51.178;4.450;2024-01-15T14:08:24;3.60;77.50
25937;DHT22;13733;51.178;4.450;2024-01-15T14:10:52;3.50;79.20
25937;DHT22;13733;51.178;4.450;2024-01-15T14:13:18;3.50;85.10
25937;DHT22;13733;51.178;4.450;2024-01-15T14:15:44;3.80;86.30
25937;DHT22;13733;51.178;4.450;2024-01-15T14:18:12;4.00;79.70
25937;DHT22;13733;51.178;4.450;2024-01-15T14:20:37;4.20;71.60
25937;DHT22;13733;51.178;4.450;2024-01-15T14:23:03;4.10;68.60
25937;DHT22;13733;51.178;4.450;2024-01-15T14:25:29;4.30;60.90
25937;DHT22;13733;51.178;4.450;2024-01-15T14:27:55;4.40;51.80
25937;DHT22;13733;51.178;4.450;2024-01-15T14:30:21;4.10;57.40
25937;DHT22;13733;51.178;4.450;2024-01-15T14:32:47;4.10;64.20
25937;DHT22;13733;51.178;4.450;2024-01-15T14:35:13;4.40;64.10
25937;DHT22;13733;51.178;4.450;2024-01-15T14:37:39;4.60;58.30
25937;DHT22;13733;51.178;4.450;2024-01-15T14:40:06;4.70;47.40
25937;DHT22;13733;51.178;4.450;2024-01-15T14:42:36;4.90;41.00
25937;DHT22;13733;51.178;4.450;2024-01-15T14:45:03;4.90;39.10
25937;DHT22;13733;51.178;4.450;2024-01-15T14:47:31;4.80;38.90
25937;DHT22;13733;51.178;4.450;2024-01-15T14:49:56;4.80;37.70
25937;DHT22;13733;51.178;4.450;2024-01-15T14:52:23;4.70;25.50
25937;DHT22;13733;51.178;4.450;2024-01-15T14:54:49;4.80;22.60
25937;DHT22;13733;51.178;4.450;2024-01-15T14:57:15;4.40;28.40
25937;DHT22;13733;51.178;4.450;2024-01-15T14:59:41;4.40;42.70
25937;DHT22;13733;51.178;4.450;2024-01-15T15:02:07;4.40;40.70
25937;DHT22;13733;51.178;4.450;2024-01-15T15:04:33;4.40;45.00
25937;DHT22;13733;51.178;4.450;2024-01-15T15:06:58;4.60;43.00
25937;DHT22;13733;51.178;4.450;2024-01-15T15:09:24;4.80;43.40
25937;DHT22;13733;51.178;4.450;2024-01-15T15:11:50;5.00;42.00
25937;DHT22;13733;51.178;4.450;2024-01-15T15:14:18;5.30;36.90
25937;DHT22;13733;51.178;4.450;2024-01-15T15:16:45;5.40;26.90
25937;DHT22;13733;51.178;4.450;2024-01-15T15:19:15;5.10;21.00
25937;DHT22;13733;51.178;4.450;2024-01-15T15:21:43;4.70;28.60
25937;DHT22;13733;51.178;4.450;2024-01-15T15:24:08;4.30;41.90
25937;DHT22;13733;51.178;4.450;2024-01-15T15:26:34;4.10;51.20
25937;DHT22;13733;51.178;4.450;2024-01-15T15:29:02;4.30;51.60
25937;DHT22;13733;51.178;4.450;2024-01-15T15:31:29;4.30;50.50
25937;DHT22;13733;51.178;4.450;2024-01-15T15:33:55;4.20;59.60
25937;DHT22;13733;51.178;4.450;2024-01-15T15:36:20;4.40;56.30
25937;DHT22;13733;51.178;4.450;2024-01-15T15:38:46;4.50;49.10
25937;DHT22;13733;51.178;4.450;2024-01-15T15:41:12;4.50;46.60
25937;DHT22;13733;51.178;4.450;2024-01-15T15:43:39;4.40;50.20
25937;DHT22;13733;51.178;4.450;2024-01-15T15:46:05;4.40;49.30
25937;DHT22;13733;51.178;4.450;2024-01-15T15:48:31;4.30;47.40
25937;DHT22;13733;51.178;4.450;2024-01-15T15:50:57;4.40;47.20
25937;DHT22;13733;51.178;4.450;2024-01-15T15:53:25;4.30;43.30
25937;DHT22;13733;51.178;4.450;2024-01-15T15:55:51;4.30;30.60
25937;DHT22;13733;51.178;4.450;2024-01-15T15:58:17;4.30;27.50
25937;DHT22;13733;51.178;4.450;2024-01-15T16:00:43;4.00;19.40
25937;DHT22;13733;51.178;4.450;2024-01-15T16:03:09;3.60;36.60
25937;DHT22;13733;51.178;4.450;2024-01-15T16:05:35;3.40;39.80